createdAt,value
2022-11-23T00:01:33.195Z,3.63
2022-11-23T00:04:03.516Z,2.75
2022-11-23T00:06:31.680Z,2.88
2022-11-23T00:08:59.650Z,3.13
2022-11-23T00:11:28.653Z,2.53
2022-11-23T00:13:56.769Z,3.40
2022-11-23T00:16:27.525Z,3.35
2022-11-23T00:18:57.441Z,3.15
2022-11-23T00:21:27.212Z,3.10
2022-11-23T00:23:54.945Z,2.75
2022-11-23T00:26:23.153Z,3.17
2022-11-23T00:28:51.375Z,5.30
2022-11-23T00:31:23.243Z,2.67
2022-11-23T00:33:53.212Z,3.35
2022-11-23T00:36:22.361Z,3.53
2022-11-23T00:38:50.945Z,2.53
2022-11-23T00:41:21.215Z,3.40
2022-11-23T00:43:49.714Z,4.00
2022-11-23T00:46:19.096Z,3.63
2022-11-23T00:48:50.480Z,2.75
2022-11-23T00:51:23.343Z,4.82
2022-11-23T00:53:52.155Z,2.70
2022-11-23T00:56:20.917Z,3.20
2022-11-23T00:58:53.581Z,2.78
2022-11-23T01:01:25.625Z,2.83
2022-11-23T01:03:59.783Z,2.50
2022-11-23T01:06:33.156Z,2.95
2022-11-23T01:09:04.701Z,3.95
2022-11-23T01:11:33.273Z,2.83
2022-11-23T01:14:02.080Z,2.90
2022-11-23T01:16:32.705Z,4.20
2022-11-23T01:19:20.665Z,3.13
2022-11-23T01:21:50.547Z,3.42
2022-11-23T01:24:21.394Z,2.67
2022-11-23T01:26:53.696Z,4.35
2022-11-23T01:29:22.953Z,3.30
2022-11-23T01:31:50.778Z,3.47
2022-11-23T01:34:18.741Z,3.45
2022-11-23T01:36:49.331Z,3.17
2022-11-23T01:39:17.435Z,2.35
2022-11-23T01:41:49.196Z,2.80
2022-11-23T01:44:33.994Z,2.10
2022-11-23T01:47:08.321Z,2.45
2022-11-23T01:49:49.760Z,2.65
2022-11-23T01:52:21.948Z,1.85
2022-11-23T01:54:54.682Z,2.70
2022-11-23T01:57:36.191Z,2.15
2022-11-23T02:00:04.455Z,3.15
2022-11-23T02:03:04.893Z,2.08
2022-11-23T02:05:43.030Z,1.92
2022-11-23T02:08:12.016Z,1.95
2022-11-23T02:10:39.726Z,3.78
2022-11-23T02:13:13.112Z,2.58
2022-11-23T02:15:41.328Z,4.00
2022-11-23T02:18:21.206Z,2.50
2022-11-23T02:20:50.926Z,3.00
2022-11-23T02:23:34.125Z,3.22
2022-11-23T02:26:08.961Z,2.97
2022-11-23T02:28:42.241Z,2.72
2022-11-23T02:31:10.179Z,2.67
2022-11-23T02:33:39.615Z,3.90
2022-11-23T02:36:32.416Z,2.58
2022-11-23T02:39:17.324Z,3.60
2022-11-23T02:41:57.318Z,3.08
2022-11-23T02:47:20.976Z,2.25
2022-11-23T02:49:49.823Z,2.00
2022-11-23T02:52:19.320Z,2.28
2022-11-23T02:54:47.338Z,2.42
2022-11-23T02:57:15.543Z,1.98
2022-11-23T02:59:47.620Z,2.30
2022-11-23T03:02:15.261Z,2.45
2022-11-23T03:04:42.993Z,2.10
2022-11-23T03:07:10.738Z,2.38
2022-11-23T03:09:39.779Z,1.40
2022-11-23T03:12:07.680Z,2.50
2022-11-23T03:14:35.402Z,1.80
2022-11-23T03:17:03.251Z,1.77
2022-11-23T03:19:36.277Z,2.35
2022-11-23T03:22:04.479Z,2.03
2022-11-23T03:24:33.265Z,6.07
2022-11-23T03:27:03.837Z,8.52
2022-11-23T03:29:31.842Z,7.63
2022-11-23T03:32:03.528Z,5.82
2022-11-23T03:34:31.346Z,4.88
2022-11-23T03:36:58.971Z,3.35
2022-11-23T03:39:26.804Z,2.72
2022-11-23T03:42:17.331Z,2.97
2022-11-23T03:44:46.530Z,3.22
2022-11-23T03:47:16.622Z,2.35
2022-11-23T03:49:44.645Z,2.63
2022-11-23T03:52:12.658Z,1.73
2022-11-23T03:54:40.312Z,2.05
2022-11-23T03:57:09.610Z,2.35
2022-11-23T03:59:38.364Z,2.97
2022-11-23T04:02:08.236Z,2.10
2022-11-23T04:04:48.362Z,3.13
2022-11-23T04:07:47.880Z,2.78
2022-11-23T04:10:17.048Z,1.50
2022-11-23T04:13:00.028Z,4.47
2022-11-23T04:15:29.034Z,1.80
2022-11-23T04:17:56.890Z,2.08
2022-11-23T04:20:24.747Z,2.13
2022-11-23T04:22:52.539Z,2.17
2022-11-23T04:25:20.252Z,1.45
2022-11-23T04:27:51.082Z,2.67
2022-11-23T04:30:19.124Z,1.85
2022-11-23T04:32:48.506Z,1.83
2022-11-23T04:35:16.329Z,1.80
2022-11-23T04:37:47.466Z,1.85
2022-11-23T04:40:15.903Z,1.85
2022-11-23T04:42:53.847Z,1.48
2022-11-23T04:45:24.563Z,2.15
2022-11-23T04:47:55.019Z,1.30
2022-11-23T04:50:25.274Z,1.92
2022-11-23T04:52:56.008Z,1.63
2022-11-23T04:55:30.524Z,1.83
2022-11-23T04:58:02.358Z,2.17
2022-11-23T05:00:32.551Z,1.63
2022-11-23T05:03:01.701Z,2.75
2022-11-23T05:05:33.703Z,1.75
2022-11-23T05:08:03.198Z,1.88
2022-11-23T05:10:49.350Z,4.00
2022-11-23T05:13:17.575Z,2.35
2022-11-23T05:15:46.318Z,1.35
2022-11-23T05:18:18.816Z,1.38
2022-11-23T05:20:47.255Z,1.90
2022-11-23T05:23:16.747Z,2.00
2022-11-23T05:25:46.102Z,1.92
2022-11-23T05:28:39.671Z,1.73
2022-11-23T05:31:09.530Z,2.13
2022-11-23T05:33:37.986Z,1.55
2022-11-23T05:36:08.860Z,2.03
2022-11-23T05:38:40.279Z,2.53
2022-11-23T05:41:13.889Z,2.92
2022-11-23T05:43:43.749Z,1.98
2022-11-23T05:46:16.369Z,2.03
2022-11-23T05:48:45.871Z,1.95
2022-11-23T05:51:14.396Z,2.00
2022-11-23T05:53:46.181Z,2.58
2022-11-23T05:56:38.816Z,4.53
2022-11-23T05:59:16.204Z,2.65
2022-11-23T06:01:49.186Z,2.97
2022-11-23T06:04:27.687Z,2.92
2022-11-23T06:07:01.331Z,3.03
2022-11-23T06:09:37.120Z,2.97
2022-11-23T06:12:09.515Z,1.65
2022-11-23T06:14:37.599Z,2.25
2022-11-23T06:17:05.325Z,2.05
2022-11-23T06:19:53.205Z,4.50
2022-11-23T06:22:20.952Z,5.63
2022-11-23T06:24:59.137Z,6.07
2022-11-23T06:27:38.059Z,7.22
2022-11-23T06:30:14.928Z,8.23
2022-11-23T06:32:43.217Z,7.97
2022-11-23T06:35:11.203Z,5.65
2022-11-23T06:37:41.624Z,4.57
2022-11-23T06:40:12.600Z,7.78
2022-11-23T06:42:41.416Z,4.95
2022-11-23T06:45:18.989Z,6.93
2022-11-23T06:47:48.648Z,5.32
2022-11-23T06:50:16.411Z,3.50
2022-11-23T06:52:46.428Z,6.28
2022-11-23T06:55:14.614Z,6.18
2022-11-23T06:57:42.481Z,4.05
2022-11-23T07:00:12.550Z,3.63
2022-11-23T07:02:40.448Z,3.67
2022-11-23T07:05:08.962Z,4.00
2022-11-23T07:07:38.814Z,3.03
2022-11-23T07:10:13.803Z,2.88
2022-11-23T07:12:47.022Z,3.22
2022-11-23T07:15:17.476Z,3.38
2022-11-23T07:17:46.105Z,4.35
2022-11-23T07:20:14.299Z,2.92
2022-11-23T07:22:42.207Z,2.47
2022-11-23T07:25:11.514Z,5.72
2022-11-23T07:27:39.277Z,3.45
2022-11-23T07:30:09.189Z,2.08
2022-11-23T07:32:37.086Z,4.13
2022-11-23T07:35:05.135Z,2.35
2022-11-23T07:37:36.936Z,4.90
2022-11-23T07:40:06.263Z,5.97
2022-11-23T07:42:41.388Z,5.35
2022-11-23T07:45:13.493Z,5.78
2022-11-23T07:47:45.839Z,5.43
2022-11-23T07:50:14.284Z,5.30
2022-11-23T07:52:42.194Z,4.53
2022-11-23T07:55:10.033Z,6.20
2022-11-23T07:57:37.648Z,11.25
2022-11-23T08:00:06.411Z,26.33
2022-11-23T08:02:52.824Z,16.13
2022-11-23T08:05:26.719Z,11.65
2022-11-23T08:08:01.597Z,7.13
2022-11-23T08:10:31.820Z,4.70
2022-11-23T08:13:04.675Z,7.10
2022-11-23T08:15:32.798Z,2.40
2022-11-23T08:18:03.280Z,2.97
2022-11-23T08:20:31.789Z,3.60
2022-11-23T08:22:59.482Z,2.08
2022-11-23T08:25:29.417Z,3.38
2022-11-23T08:28:02.305Z,2.60
2022-11-23T08:30:31.762Z,3.78
2022-11-23T08:33:00.039Z,3.72
2022-11-23T08:35:27.899Z,6.53
2022-11-23T08:37:55.550Z,3.42
2022-11-23T08:40:25.678Z,3.33
2022-11-23T08:42:54.546Z,3.33
2022-11-23T08:45:22.516Z,3.60
2022-11-23T08:47:51.202Z,4.35
2022-11-23T08:50:22.109Z,4.72
2022-11-23T08:52:58.432Z,2.70
2022-11-23T08:55:27.696Z,4.13
2022-11-23T08:57:58.929Z,2.75
2022-11-23T09:00:27.704Z,4.45
2022-11-23T09:02:55.605Z,3.25
2022-11-23T09:05:23.418Z,4.72
2022-11-23T09:07:51.184Z,5.68
2022-11-23T09:10:19.475Z,4.28
2022-11-23T09:12:48.027Z,2.90
2022-11-23T09:15:16.079Z,7.93
2022-11-23T09:17:44.250Z,3.10
2022-11-23T09:20:13.090Z,3.75
2022-11-23T09:22:40.903Z,1.50
2022-11-23T09:25:10.582Z,4.65
2022-11-23T09:27:39.110Z,2.65
2022-11-23T09:30:07.379Z,2.75
2022-11-23T09:32:35.163Z,5.53
2022-11-23T09:35:03.153Z,5.13
2022-11-23T09:37:30.825Z,3.17
2022-11-23T09:39:58.822Z,8.23
2022-11-23T09:42:54.294Z,5.05
2022-11-23T09:45:43.353Z,3.30
2022-11-23T09:48:13.780Z,6.35
2022-11-23T09:50:53.366Z,7.18
2022-11-23T09:53:29.490Z,3.47
2022-11-23T09:55:58.263Z,8.50
2022-11-23T09:58:33.482Z,5.10
2022-11-23T10:01:05.532Z,4.20
2022-11-23T10:03:48.260Z,5.43
2022-11-23T10:06:29.674Z,6.00
2022-11-23T10:08:57.420Z,5.50
2022-11-23T10:12:00.355Z,5.35
2022-11-23T10:14:56.453Z,9.55
2022-11-23T10:17:45.866Z,7.07
2022-11-23T10:20:38.040Z,9.07
2022-11-23T10:23:21.475Z,10.85
2022-11-23T10:25:51.991Z,8.10
2022-11-23T10:28:22.505Z,10.57
2022-11-23T10:31:15.182Z,11.57
2022-11-23T10:34:11.164Z,7.47
2022-11-23T10:36:39.819Z,7.35
2022-11-23T10:39:25.820Z,10.55
2022-11-23T10:41:59.387Z,6.00
2022-11-23T10:44:38.386Z,10.40
2022-11-23T10:47:06.161Z,7.38
2022-11-23T10:49:35.352Z,5.13
2022-11-23T10:52:06.867Z,6.75
2022-11-23T10:54:56.488Z,6.03
2022-11-23T10:57:42.404Z,7.15
2022-11-23T11:00:13.378Z,6.22
2022-11-23T11:02:54.435Z,7.47
2022-11-23T11:08:30.863Z,10.15
2022-11-23T11:11:00.590Z,6.85
2022-11-23T11:13:32.698Z,7.55
2022-11-23T11:16:05.380Z,6.43
2022-11-23T11:18:35.919Z,6.25
2022-11-23T11:21:32.797Z,8.10
2022-11-23T11:24:00.433Z,8.25
2022-11-23T11:26:30.473Z,8.98
2022-11-23T11:29:02.383Z,7.25
2022-11-23T11:32:00.970Z,8.60
2022-11-23T11:34:46.275Z,9.50
2022-11-23T11:37:48.326Z,4.95
2022-11-23T11:40:21.996Z,5.15
2022-11-23T11:42:57.005Z,6.10
2022-11-23T11:46:13.202Z,6.03
2022-11-23T11:48:45.216Z,6.30
2022-11-23T11:51:38.300Z,7.40
2022-11-23T11:54:40.118Z,13.27
2022-11-23T11:57:20.926Z,10.57
2022-11-23T11:59:53.212Z,8.20
2022-11-23T12:02:23.654Z,8.30
2022-11-23T12:05:25.581Z,5.93
2022-11-23T12:08:00.013Z,5.78
2022-11-23T12:10:34.279Z,7.50
2022-11-23T12:13:01.921Z,8.35
2022-11-23T12:15:49.581Z,7.20
2022-11-23T12:18:45.740Z,6.40
2022-11-23T12:21:22.792Z,6.82
2022-11-23T12:24:00.489Z,9.27
2022-11-23T12:26:31.209Z,8.95
2022-11-23T12:29:26.766Z,9.43
2022-11-23T12:32:07.843Z,7.13
2022-11-23T12:35:06.027Z,7.53
2022-11-23T12:37:58.989Z,6.40
2022-11-23T12:40:46.936Z,6.05
2022-11-23T12:43:36.607Z,7.05
2022-11-23T12:46:10.847Z,8.95
2022-11-23T12:48:55.898Z,9.85
2022-11-23T12:51:57.532Z,7.25
2022-11-23T12:54:34.869Z,8.30
2022-11-23T12:57:14.153Z,7.10
2022-11-23T13:00:04.993Z,8.43
2022-11-23T13:02:48.713Z,8.63
2022-11-23T13:05:31.789Z,11.18
2022-11-23T13:08:11.553Z,6.30
2022-11-23T13:11:01.796Z,8.48
2022-11-23T13:13:51.369Z,9.38
2022-11-23T13:16:33.684Z,12.13
2022-11-23T13:19:33.964Z,13.50
2022-11-23T13:22:05.459Z,13.20
2022-11-23T13:24:36.169Z,20.45
2022-11-23T13:27:13.980Z,10.48
2022-11-23T13:29:51.535Z,11.95
2022-11-23T13:32:46.224Z,9.82
2022-11-23T13:35:16.887Z,12.05
2022-11-23T13:38:13.836Z,12.10
2022-11-23T13:40:43.902Z,16.23
2022-11-23T13:43:27.164Z,13.98
2022-11-23T13:46:16.817Z,18.35
2022-11-23T13:48:56.731Z,14.90
2022-11-23T13:51:33.812Z,28.65
2022-11-23T13:54:19.714Z,29.15
2022-11-23T13:57:01.670Z,32.72
2022-11-23T13:59:32.366Z,50.25
2022-11-23T14:02:11.127Z,42.45
2022-11-23T14:04:39.050Z,45.10
2022-11-23T14:07:26.693Z,44.90
2022-11-23T14:13:19.559Z,28.90
2022-11-23T14:15:57.853Z,26.45
2022-11-23T14:18:38.451Z,59.95
2022-11-23T14:21:15.044Z,95.25
2022-11-23T14:24:23.525Z,80.50
2022-11-23T14:26:51.967Z,47.80
2022-11-23T14:29:28.787Z,36.33
2022-11-23T14:32:18.242Z,23.85
2022-11-23T14:35:10.983Z,27.92
2022-11-23T14:38:09.358Z,26.40
2022-11-23T14:41:12.471Z,37.92
2022-11-23T14:43:42.737Z,46.95
2022-11-23T14:46:20.425Z,48.53
2022-11-23T14:48:49.783Z,41.55
2022-11-23T14:51:26.883Z,42.97
2022-11-23T14:56:23.314Z,38.63
2022-11-23T14:58:51.744Z,38.20
2022-11-23T15:01:23.214Z,34.83
2022-11-23T15:04:10.959Z,33.15
2022-11-23T15:06:47.472Z,34.53
2022-11-23T15:09:57.658Z,30.02
2022-11-23T15:12:28.378Z,27.90
2022-11-23T15:14:59.784Z,25.45
2022-11-23T15:17:27.628Z,27.30
2022-11-23T15:20:04.659Z,27.42
2022-11-23T15:22:35.116Z,22.08
2022-11-23T15:25:10.417Z,22.92
2022-11-23T15:27:41.722Z,17.75
2022-11-23T15:30:22.449Z,17.33
2022-11-23T15:33:04.626Z,12.27
2022-11-23T15:35:35.734Z,15.75
2022-11-23T15:38:06.883Z,12.80
2022-11-23T15:40:37.915Z,12.98
2022-11-23T15:43:05.621Z,14.93
2022-11-23T15:45:35.097Z,17.58
2022-11-23T15:48:05.477Z,19.67
2022-11-23T15:50:34.419Z,20.92
2022-11-23T15:53:09.945Z,19.80
2022-11-23T15:55:37.621Z,17.95
2022-11-23T15:58:08.245Z,17.65
2022-11-23T16:00:36.968Z,14.18
2022-11-23T16:03:34.418Z,14.85
2022-11-23T16:06:15.015Z,11.52
2022-11-23T16:08:42.581Z,12.73
2022-11-23T16:11:30.985Z,13.80
2022-11-23T16:14:20.381Z,16.98
2022-11-23T16:16:58.916Z,16.92
2022-11-23T16:19:32.400Z,13.48
2022-11-23T16:22:05.119Z,12.55
2022-11-23T16:24:35.133Z,10.50
2022-11-23T16:27:13.985Z,10.00
2022-11-23T16:29:42.282Z,13.48
2022-11-23T16:32:22.035Z,14.20
2022-11-23T16:34:50.168Z,10.02
2022-11-23T16:37:18.418Z,10.65
2022-11-23T16:39:46.606Z,11.63
2022-11-23T16:42:17.768Z,44.20
2022-11-23T16:44:45.599Z,29.10
2022-11-23T16:47:27.164Z,21.05
2022-11-23T16:49:55.089Z,14.85
2022-11-23T16:52:24.740Z,13.32
2022-11-23T16:54:53.425Z,11.18
2022-11-23T16:57:29.068Z,12.43
2022-11-23T16:59:58.839Z,9.15
2022-11-23T17:02:26.715Z,11.50
2022-11-23T17:04:54.911Z,13.23
2022-11-23T17:07:22.734Z,14.00
2022-11-23T17:09:50.534Z,12.02
2022-11-23T17:12:20.460Z,14.45
2022-11-23T17:14:49.638Z,10.85
2022-11-23T17:17:22.245Z,10.15
2022-11-23T17:19:54.291Z,10.60
2022-11-23T17:22:23.186Z,8.48
2022-11-23T17:24:53.775Z,14.95
2022-11-23T17:27:25.551Z,11.35
2022-11-23T17:29:59.329Z,12.32
2022-11-23T17:32:28.791Z,13.70
2022-11-23T17:34:57.797Z,10.52
2022-11-23T17:37:26.949Z,12.68
2022-11-23T17:39:55.750Z,11.90
2022-11-23T17:42:23.903Z,11.98
2022-11-23T17:44:52.961Z,11.98
2022-11-23T17:47:30.938Z,11.50
2022-11-23T17:50:01.796Z,10.85
2022-11-23T17:52:33.391Z,10.25
2022-11-23T17:55:01.347Z,12.02
2022-11-23T17:57:37.990Z,12.63
2022-11-23T18:00:14.579Z,12.68
2022-11-23T18:02:42.301Z,10.38
2022-11-23T18:05:12.341Z,11.23
2022-11-23T18:07:44.050Z,10.75
2022-11-23T18:10:13.932Z,11.95
2022-11-23T18:12:41.799Z,9.65
2022-11-23T18:15:10.106Z,9.63
2022-11-23T18:17:38.185Z,11.80
2022-11-23T18:20:08.372Z,11.88
2022-11-23T18:22:36.284Z,9.40
2022-11-23T18:25:04.139Z,11.75
2022-11-23T18:27:32.036Z,12.43
2022-11-23T18:29:59.882Z,9.18
2022-11-23T18:32:27.526Z,14.95
2022-11-23T18:34:55.213Z,24.02
2022-11-23T18:37:23.075Z,20.98
2022-11-23T18:39:50.972Z,15.57
2022-11-23T18:42:18.912Z,11.75
2022-11-23T18:44:46.681Z,11.48
2022-11-23T18:47:14.333Z,12.48
2022-11-23T18:49:42.124Z,10.88
2022-11-23T18:52:13.992Z,14.15
2022-11-23T18:54:41.754Z,11.32
2022-11-23T18:57:10.075Z,13.63
2022-11-23T19:02:25.862Z,11.07
2022-11-23T19:04:53.669Z,12.13
2022-11-23T19:07:26.629Z,11.82
2022-11-23T19:09:55.068Z,12.93
2022-11-23T19:12:22.983Z,12.93
2022-11-23T19:14:50.783Z,15.32
2022-11-23T19:17:18.461Z,16.90
2022-11-23T19:19:46.262Z,18.55
2022-11-23T19:22:13.967Z,16.85
2022-11-23T19:24:41.819Z,20.13
2022-11-23T19:27:10.007Z,21.17
2022-11-23T19:29:38.140Z,21.23
2022-11-23T19:32:06.197Z,28.95
2022-11-23T19:34:33.930Z,33.60
2022-11-23T19:37:01.965Z,45.35
2022-11-23T19:39:31.231Z,45.05
2022-11-23T19:41:59.802Z,34.78
2022-11-23T19:44:27.900Z,32.80
2022-11-23T19:46:55.769Z,28.55
2022-11-23T19:49:23.653Z,28.45
2022-11-23T19:51:53.642Z,21.02
2022-11-23T19:54:21.278Z,20.92
2022-11-23T19:56:52.261Z,24.95
2022-11-23T19:59:20.235Z,22.20
2022-11-23T20:01:48.154Z,26.77
2022-11-23T20:04:16.072Z,28.88
2022-11-23T20:06:44.113Z,26.60
2022-11-23T20:09:23.065Z,28.42
2022-11-23T20:11:51.695Z,56.42
2022-11-23T20:14:22.676Z,54.08
2022-11-23T20:16:51.827Z,51.65
2022-11-23T20:19:19.594Z,36.80
2022-11-23T20:21:47.522Z,29.27
2022-11-23T20:24:15.313Z,24.95
2022-11-23T20:26:43.607Z,19.13
2022-11-23T20:29:11.715Z,17.58
2022-11-23T20:31:39.694Z,15.73
2022-11-23T20:34:10.010Z,12.48
2022-11-23T20:36:41.036Z,16.08
2022-11-23T20:39:11.149Z,13.07
2022-11-23T20:41:39.268Z,14.30
2022-11-23T20:44:11.587Z,14.90
2022-11-23T20:49:28.035Z,12.05
2022-11-23T20:51:55.741Z,16.17
2022-11-23T20:54:23.628Z,11.95
2022-11-23T20:56:51.407Z,18.52
2022-11-23T20:59:20.002Z,11.70
2022-11-23T21:01:48.160Z,13.02
2022-11-23T21:04:16.011Z,11.95
2022-11-23T21:06:43.986Z,11.93
2022-11-23T21:09:12.351Z,12.48
2022-11-23T21:11:58.573Z,13.00
2022-11-23T21:14:31.724Z,10.93
2022-11-23T21:17:01.090Z,9.23
2022-11-23T21:19:34.565Z,10.40
2022-11-23T21:22:05.410Z,8.57
2022-11-23T21:24:35.715Z,10.75
2022-11-23T21:27:05.576Z,10.40
2022-11-23T21:29:33.758Z,10.55
2022-11-23T21:32:04.428Z,9.48
2022-11-23T21:34:32.972Z,13.90
2022-11-23T21:37:01.147Z,17.90
2022-11-23T21:39:31.170Z,19.50
2022-11-23T21:41:59.149Z,15.30
2022-11-23T21:44:26.841Z,17.52
2022-11-23T21:46:54.784Z,21.20
2022-11-23T21:49:22.648Z,17.80
2022-11-23T21:51:50.482Z,18.95
2022-11-23T21:54:18.264Z,15.55
2022-11-23T21:56:46.563Z,12.40
2022-11-23T21:59:14.606Z,12.98
2022-11-23T22:01:42.832Z,14.00
2022-11-23T22:04:13.425Z,12.55
2022-11-23T22:06:42.341Z,9.52
2022-11-23T22:09:11.708Z,10.13
2022-11-23T22:11:41.830Z,9.32
2022-11-23T22:14:16.323Z,10.18
2022-11-23T22:16:54.472Z,9.73
2022-11-23T22:19:22.665Z,10.48
2022-11-23T22:21:50.582Z,10.88
2022-11-23T22:24:19.744Z,10.80
2022-11-23T22:26:48.059Z,9.63
2022-11-23T22:29:16.144Z,9.40
2022-11-23T22:31:44.250Z,7.60
2022-11-23T22:34:13.541Z,8.93
2022-11-23T22:36:42.271Z,6.95
2022-11-23T22:39:10.439Z,7.20
2022-11-23T22:41:39.550Z,7.97
2022-11-23T22:44:09.533Z,8.50
2022-11-23T22:46:39.601Z,8.07
2022-11-23T22:49:07.514Z,8.45
2022-11-23T22:51:36.773Z,11.68
2022-11-23T22:54:04.825Z,10.30
2022-11-23T22:56:32.825Z,8.50
2022-11-23T22:59:01.021Z,8.40
2022-11-23T23:01:31.009Z,8.52
2022-11-23T23:04:01.619Z,9.23
2022-11-23T23:06:34.836Z,8.20
2022-11-23T23:09:05.093Z,7.38
2022-11-23T23:11:34.628Z,9.25
2022-11-23T23:14:02.396Z,9.00
2022-11-23T23:16:30.456Z,10.38
2022-11-23T23:18:59.549Z,8.15
2022-11-23T23:21:28.706Z,8.05
2022-11-23T23:23:58.978Z,8.43
2022-11-23T23:26:28.571Z,10.30
2022-11-23T23:28:59.282Z,8.75
2022-11-23T23:31:28.324Z,9.75
2022-11-23T23:33:57.367Z,10.85
2022-11-23T23:36:25.030Z,9.52
2022-11-23T23:38:52.881Z,7.82
2022-11-23T23:41:20.936Z,10.07
2022-11-23T23:43:48.778Z,8.75
2022-11-23T23:46:16.742Z,6.68
2022-11-23T23:48:45.080Z,7.60
2022-11-23T23:51:24.064Z,7.88
2022-11-23T23:53:52.903Z,8.05
2022-11-23T23:56:23.764Z,6.90
2022-11-23T23:58:52.191Z,5.70
